sensor_id;sensor_type;location;lat;lon;timestamp;P1;durP1;ratioP1;P2;durP2;ratioP2
59169;SDS011;52474;52.236;5.114;2023-04-15T00:01:24;11.82;;;5.53;;
59169;SDS011;52474;52.236;5.114;2023-04-15T00:03:52;7.25;;;5.22;;
59169;SDS011;52474;52.236;5.114;2023-04-15T00:06:22;9.43;;;5.45;;
59169;SDS011;52474;52.236;5.114;2023-04-15T00:08:48;10.77;;;5.45;;
59169;SDS011;52474;52.236;5.114;2023-04-15T00:11:15;9.73;;;5.22;;
59169;SDS011;52474;52.236;5.114;2023-04-15T00:13:41;10.00;;;5.38;;
59169;SDS011;52474;52.236;5.114;2023-04-15T00:16:08;7.60;;;5.25;;
59169;SDS011;52474;52.236;5.114;2023-04-15T00:18:35;7.53;;;5.22;;
59169;SDS011;52474;52.236;5.114;2023-04-15T00:21:01;11.50;;;4.72;;
59169;SDS011;52474;52.236;5.114;2023-04-15T00:23:27;10.10;;;5.65;;
59169;SDS011;52474;52.236;5.114;2023-04-15T00:25:53;11.07;;;5.85;;
59169;SDS011;52474;52.236;5.114;2023-04-15T00:28:19;8.95;;;4.82;;
59169;SDS011;52474;52.236;5.114;2023-04-15T00:30:46;10.65;;;4.93;;
59169;SDS011;52474;52.236;5.114;2023-04-15T00:33:12;11.05;;;5.57;;
59169;SDS011;52474;52.236;5.114;2023-04-15T00:35:38;8.27;;;5.45;;
59169;SDS011;52474;52.236;5.114;2023-04-15T00:38:05;8.15;;;5.18;;
59169;SDS011;52474;52.236;5.114;2023-04-15T00:40:32;7.88;;;5.38;;
59169;SDS011;52474;52.236;5.114;2023-04-15T00:42:59;8.88;;;5.30;;
59169;SDS011;52474;52.236;5.114;2023-04-15T00:45:25;9.82;;;5.28;;
59169;SDS011;52474;52.236;5.114;2023-04-15T00:47:53;7.18;;;5.32;;
59169;SDS011;52474;52.236;5.114;2023-04-15T00:50:20;9.15;;;5.85;;
59169;SDS011;52474;52.236;5.114;2023-04-15T00:52:47;8.60;;;5.22;;
59169;SDS011;52474;52.236;5.114;2023-04-15T00:55:14;7.72;;;4.85;;
59169;SDS011;52474;52.236;5.114;2023-04-15T00:57:40;7.53;;;4.78;;
59169;SDS011;52474;52.236;5.114;2023-04-15T01:00:06;7.70;;;5.03;;
59169;SDS011;52474;52.236;5.114;2023-04-15T01:02:36;9.48;;;5.13;;
59169;SDS011;52474;52.236;5.114;2023-04-15T01:05:03;7.38;;;5.00;;
59169;SDS011;52474;52.236;5.114;2023-04-15T01:07:30;9.10;;;5.28;;
59169;SDS011;52474;52.236;5.114;2023-04-15T01:09:56;12.90;;;5.65;;
59169;SDS011;52474;52.236;5.114;2023-04-15T01:12:22;10.18;;;5.03;;
59169;SDS011;52474;52.236;5.114;2023-04-15T01:14:50;10.80;;;5.35;;
59169;SDS011;52474;52.236;5.114;2023-04-15T01:17:17;8.60;;;4.93;;
59169;SDS011;52474;52.236;5.114;2023-04-15T01:19:43;12.32;;;5.40;;
59169;SDS011;52474;52.236;5.114;2023-04-15T01:22:10;10.20;;;5.38;;
59169;SDS011;52474;52.236;5.114;2023-04-15T01:24:37;9.27;;;5.05;;
59169;SDS011;52474;52.236;5.114;2023-04-15T01:27:04;7.75;;;4.88;;
59169;SDS011;52474;52.236;5.114;2023-04-15T01:29:30;7.93;;;4.75;;
59169;SDS011;52474;52.236;5.114;2023-04-15T01:31:57;8.27;;;5.07;;
59169;SDS011;52474;52.236;5.114;2023-04-15T01:34:44;11.77;;;5.90;;
59169;SDS011;52474;52.236;5.114;2023-04-15T01:37:28;6.40;;;4.57;;
59169;SDS011;52474;52.236;5.114;2023-04-15T01:39:55;9.90;;;5.55;;
59169;SDS011;52474;52.236;5.114;2023-04-15T01:42:22;10.27;;;4.68;;
59169;SDS011;52474;52.236;5.114;2023-04-15T01:44:50;7.75;;;4.60;;
59169;SDS011;52474;52.236;5.114;2023-04-15T01:47:29;8.40;;;4.72;;
59169;SDS011;52474;52.236;5.114;2023-04-15T01:49:56;8.85;;;5.32;;
59169;SDS011;52474;52.236;5.114;2023-04-15T01:52:23;7.55;;;5.05;;
59169;SDS011;52474;52.236;5.114;2023-04-15T01:54:50;8.18;;;4.90;;
59169;SDS011;52474;52.236;5.114;2023-04-15T01:57:18;7.10;;;5.15;;
59169;SDS011;52474;52.236;5.114;2023-04-15T01:59:46;10.00;;;5.25;;
59169;SDS011;52474;52.236;5.114;2023-04-15T02:02:13;8.90;;;5.15;;
59169;SDS011;52474;52.236;5.114;2023-04-15T02:04:43;13.02;;;5.32;;
59169;SDS011;52474;52.236;5.114;2023-04-15T02:07:11;9.32;;;4.88;;
59169;SDS011;52474;52.236;5.114;2023-04-15T02:09:38;7.60;;;4.78;;
59169;SDS011;52474;52.236;5.114;2023-04-15T02:12:08;10.47;;;4.97;;
59169;SDS011;52474;52.236;5.114;2023-04-15T02:14:35;6.97;;;4.57;;
59169;SDS011;52474;52.236;5.114;2023-04-15T02:17:03;9.77;;;5.00;;
59169;SDS011;52474;52.236;5.114;2023-04-15T02:19:34;9.43;;;4.63;;
59169;SDS011;52474;52.236;5.114;2023-04-15T02:22:03;11.43;;;4.88;;
59169;SDS011;52474;52.236;5.114;2023-04-15T02:24:30;8.10;;;5.10;;
59169;SDS011;52474;52.236;5.114;2023-04-15T02:26:57;6.15;;;4.40;;
59169;SDS011;52474;52.236;5.114;2023-04-15T02:29:24;8.05;;;5.25;;
59169;SDS011;52474;52.236;5.114;2023-04-15T02:31:51;9.10;;;4.95;;
59169;SDS011;52474;52.236;5.114;2023-04-15T02:34:20;9.68;;;5.05;;
59169;SDS011;52474;52.236;5.114;2023-04-15T02:36:47;7.28;;;4.90;;
59169;SDS011;52474;52.236;5.114;2023-04-15T02:39:15;8.18;;;4.32;;
59169;SDS011;52474;52.236;5.114;2023-04-15T02:41:45;8.45;;;5.15;;
59169;SDS011;52474;52.236;5.114;2023-04-15T02:44:21;7.45;;;5.20;;
59169;SDS011;52474;52.236;5.114;2023-04-15T02:46:53;10.35;;;5.35;;
59169;SDS011;52474;52.236;5.114;2023-04-15T02:49:21;6.63;;;4.70;;
59169;SDS011;52474;52.236;5.114;2023-04-15T02:51:49;13.27;;;5.57;;
59169;SDS011;52474;52.236;5.114;2023-04-15T02:54:17;9.35;;;5.32;;
59169;SDS011;52474;52.236;5.114;2023-04-15T02:56:45;10.25;;;5.45;;
59169;SDS011;52474;52.236;5.114;2023-04-15T02:59:12;8.02;;;4.97;;
59169;SDS011;52474;52.236;5.114;2023-04-15T03:01:39;10.40;;;5.38;;
59169;SDS011;52474;52.236;5.114;2023-04-15T03:04:06;7.65;;;5.15;;
59169;SDS011;52474;52.236;5.114;2023-04-15T03:06:36;11.18;;;5.07;;
59169;SDS011;52474;52.236;5.114;2023-04-15T03:09:04;8.18;;;5.15;;
59169;SDS011;52474;52.236;5.114;2023-04-15T03:11:34;7.55;;;5.10;;
59169;SDS011;52474;52.236;5.114;2023-04-15T03:14:08;10.38;;;5.47;;
59169;SDS011;52474;52.236;5.114;2023-04-15T03:16:39;9.85;;;5.28;;
59169;SDS011;52474;52.236;5.114;2023-04-15T03:19:06;9.48;;;4.93;;
59169;SDS011;52474;52.236;5.114;2023-04-15T03:21:34;10.27;;;5.30;;
59169;SDS011;52474;52.236;5.114;2023-04-15T03:24:01;8.35;;;4.70;;
59169;SDS011;52474;52.236;5.114;2023-04-15T03:26:30;11.43;;;5.80;;
59169;SDS011;52474;52.236;5.114;2023-04-15T03:29:01;10.32;;;6.85;;
59169;SDS011;52474;52.236;5.114;2023-04-15T03:31:28;10.05;;;5.65;;
59169;SDS011;52474;52.236;5.114;2023-04-15T03:33:55;9.55;;;5.55;;
59169;SDS011;52474;52.236;5.114;2023-04-15T03:36:24;8.70;;;5.13;;
59169;SDS011;52474;52.236;5.114;2023-04-15T03:38:52;12.77;;;6.20;;
59169;SDS011;52474;52.236;5.114;2023-04-15T03:41:20;13.73;;;6.07;;
59169;SDS011;52474;52.236;5.114;2023-04-15T03:43:47;12.10;;;5.18;;
59169;SDS011;52474;52.236;5.114;2023-04-15T03:46:14;11.95;;;5.65;;
59169;SDS011;52474;52.236;5.114;2023-04-15T03:48:41;11.68;;;5.97;;
59169;SDS011;52474;52.236;5.114;2023-04-15T03:51:08;10.50;;;6.25;;
59169;SDS011;52474;52.236;5.114;2023-04-15T03:53:35;10.10;;;5.50;;
59169;SDS011;52474;52.236;5.114;2023-04-15T03:56:02;8.88;;;5.22;;
59169;SDS011;52474;52.236;5.114;2023-04-15T03:58:29;10.95;;;5.40;;
59169;SDS011;52474;52.236;5.114;2023-04-15T04:00:57;10.73;;;5.75;;
59169;SDS011;52474;52.236;5.114;2023-04-15T04:03:24;8.73;;;5.53;;
59169;SDS011;52474;52.236;5.114;2023-04-15T04:05:52;12.13;;;6.60;;
59169;SDS011;52474;52.236;5.114;2023-04-15T04:08:19;11.63;;;6.43;;
59169;SDS011;52474;52.236;5.114;2023-04-15T04:10:47;9.13;;;5.78;;
59169;SDS011;52474;52.236;5.114;2023-04-15T04:13:14;11.13;;;6.30;;
59169;SDS011;52474;52.236;5.114;2023-04-15T04:15:41;9.55;;;5.97;;
59169;SDS011;52474;52.236;5.114;2023-04-15T04:18:11;11.20;;;5.75;;
59169;SDS011;52474;52.236;5.114;2023-04-15T04:20:38;10.90;;;6.35;;
59169;SDS011;52474;52.236;5.114;2023-04-15T04:23:05;12.02;;;6.10;;
59169;SDS011;52474;52.236;5.114;2023-04-15T04:25:33;12.50;;;6.43;;
59169;SDS011;52474;52.236;5.114;2023-04-15T04:27:59;10.95;;;6.07;;
59169;SDS011;52474;52.236;5.114;2023-04-15T04:30:26;9.77;;;5.78;;
59169;SDS011;52474;52.236;5.114;2023-04-15T04:32:53;12.25;;;6.22;;
59169;SDS011;52474;52.236;5.114;2023-04-15T04:35:20;14.40;;;6.43;;
59169;SDS011;52474;52.236;5.114;2023-04-15T04:37:48;9.70;;;5.22;;
59169;SDS011;52474;52.236;5.114;2023-04-15T04:40:15;10.48;;;6.20;;
59169;SDS011;52474;52.236;5.114;2023-04-15T04:42:42;9.68;;;6.65;;
59169;SDS011;52474;52.236;5.114;2023-04-15T04:45:09;9.73;;;6.03;;
59169;SDS011;52474;52.236;5.114;2023-04-15T04:47:39;10.10;;;5.95;;
59169;SDS011;52474;52.236;5.114;2023-04-15T04:50:07;10.93;;;5.40;;
59169;SDS011;52474;52.236;5.114;2023-04-15T04:52:34;12.60;;;6.68;;
59169;SDS011;52474;52.236;5.114;2023-04-15T04:55:02;9.38;;;6.28;;
59169;SDS011;52474;52.236;5.114;2023-04-15T04:57:30;12.30;;;6.57;;
59169;SDS011;52474;52.236;5.114;2023-04-15T04:59:57;10.30;;;6.18;;
59169;SDS011;52474;52.236;5.114;2023-04-15T05:02:24;9.98;;;6.55;;
59169;SDS011;52474;52.236;5.114;2023-04-15T05:04:52;9.85;;;6.00;;
59169;SDS011;52474;52.236;5.114;2023-04-15T05:07:20;12.35;;;6.47;;
59169;SDS011;52474;52.236;5.114;2023-04-15T05:09:47;13.73;;;6.45;;
59169;SDS011;52474;52.236;5.114;2023-04-15T05:12:14;11.38;;;6.25;;
59169;SDS011;52474;52.236;5.114;2023-04-15T05:14:41;10.77;;;6.57;;
59169;SDS011;52474;52.236;5.114;2023-04-15T05:17:08;12.52;;;6.82;;
59169;SDS011;52474;52.236;5.114;2023-04-15T05:19:36;11.88;;;6.47;;
59169;SDS011;52474;52.236;5.114;2023-04-15T05:22:03;12.23;;;7.10;;
59169;SDS011;52474;52.236;5.114;2023-04-15T05:24:30;9.25;;;5.47;;
59169;SDS011;52474;52.236;5.114;2023-04-15T05:26:57;11.00;;;6.18;;
59169;SDS011;52474;52.236;5.114;2023-04-15T05:29:24;12.70;;;6.60;;
59169;SDS011;52474;52.236;5.114;2023-04-15T05:31:51;11.23;;;6.15;;
59169;SDS011;52474;52.236;5.114;2023-04-15T05:34:18;10.13;;;6.20;;
59169;SDS011;52474;52.236;5.114;2023-04-15T05:36:46;11.18;;;6.20;;
59169;SDS011;52474;52.236;5.114;2023-04-15T05:39:13;12.52;;;7.97;;
59169;SDS011;52474;52.236;5.114;2023-04-15T05:41:40;12.95;;;6.97;;
59169;SDS011;52474;52.236;5.114;2023-04-15T05:44:07;12.90;;;7.20;;
59169;SDS011;52474;52.236;5.114;2023-04-15T05:46:34;12.10;;;6.55;;
59169;SDS011;52474;52.236;5.114;2023-04-15T05:49:01;13.32;;;7.45;;
59169;SDS011;52474;52.236;5.114;2023-04-15T05:51:29;10.30;;;6.35;;
59169;SDS011;52474;52.236;5.114;2023-04-15T05:53:57;9.63;;;6.70;;
59169;SDS011;52474;52.236;5.114;2023-04-15T05:56:24;13.68;;;7.15;;
59169;SDS011;52474;52.236;5.114;2023-04-15T05:58:52;12.30;;;7.38;;
59169;SDS011;52474;52.236;5.114;2023-04-15T06:01:19;14.70;;;7.40;;
59169;SDS011;52474;52.236;5.114;2023-04-15T06:03:46;14.70;;;7.60;;
59169;SDS011;52474;52.236;5.114;2023-04-15T06:06:14;15.02;;;8.18;;
59169;SDS011;52474;52.236;5.114;2023-04-15T06:08:41;13.30;;;8.13;;
59169;SDS011;52474;52.236;5.114;2023-04-15T06:11:09;14.45;;;7.80;;
59169;SDS011;52474;52.236;5.114;2023-04-15T06:13:36;14.63;;;7.78;;
59169;SDS011;52474;52.236;5.114;2023-04-15T06:16:03;12.70;;;7.18;;
59169;SDS011;52474;52.236;5.114;2023-04-15T06:18:30;13.23;;;7.63;;
59169;SDS011;52474;52.236;5.114;2023-04-15T06:20:58;14.82;;;8.35;;
59169;SDS011;52474;52.236;5.114;2023-04-15T06:23:25;15.60;;;7.60;;
59169;SDS011;52474;52.236;5.114;2023-04-15T06:25:53;12.38;;;6.70;;
59169;SDS011;52474;52.236;5.114;2023-04-15T06:28:20;14.07;;;8.35;;
59169;SDS011;52474;52.236;5.114;2023-04-15T06:30:47;15.82;;;8.25;;
59169;SDS011;52474;52.236;5.114;2023-04-15T06:33:14;14.52;;;9.10;;
59169;SDS011;52474;52.236;5.114;2023-04-15T06:35:41;13.32;;;7.93;;
59169;SDS011;52474;52.236;5.114;2023-04-15T06:38:09;12.60;;;7.70;;
59169;SDS011;52474;52.236;5.114;2023-04-15T06:40:36;15.68;;;8.75;;
59169;SDS011;52474;52.236;5.114;2023-04-15T06:43:04;14.43;;;8.20;;
59169;SDS011;52474;52.236;5.114;2023-04-15T06:45:31;14.82;;;9.02;;
59169;SDS011;52474;52.236;5.114;2023-04-15T06:47:58;19.00;;;9.57;;
59169;SDS011;52474;52.236;5.114;2023-04-15T06:50:25;13.65;;;8.60;;
59169;SDS011;52474;52.236;5.114;2023-04-15T06:52:53;13.88;;;8.18;;
59169;SDS011;52474;52.236;5.114;2023-04-15T06:55:21;17.10;;;9.27;;
59169;SDS011;52474;52.236;5.114;2023-04-15T06:57:48;14.02;;;9.23;;
59169;SDS011;52474;52.236;5.114;2023-04-15T07:00:15;14.68;;;9.10;;
59169;SDS011;52474;52.236;5.114;2023-04-15T07:02:43;14.30;;;8.30;;
59169;SDS011;52474;52.236;5.114;2023-04-15T07:05:13;13.80;;;8.43;;
59169;SDS011;52474;52.236;5.114;2023-04-15T07:07:40;17.92;;;8.93;;
59169;SDS011;52474;52.236;5.114;2023-04-15T07:10:08;14.30;;;8.90;;
59169;SDS011;52474;52.236;5.114;2023-04-15T07:12:35;14.40;;;8.32;;
59169;SDS011;52474;52.236;5.114;2023-04-15T07:15:03;14.70;;;8.20;;
59169;SDS011;52474;52.236;5.114;2023-04-15T07:17:31;13.35;;;7.60;;
59169;SDS011;52474;52.236;5.114;2023-04-15T07:19:58;13.15;;;7.75;;
59169;SDS011;52474;52.236;5.114;2023-04-15T07:22:25;14.00;;;7.10;;
59169;SDS011;52474;52.236;5.114;2023-04-15T07:24:52;10.40;;;6.20;;
59169;SDS011;52474;52.236;5.114;2023-04-15T07:27:19;9.68;;;6.25;;
59169;SDS011;52474;52.236;5.114;2023-04-15T07:29:47;10.20;;;5.75;;
59169;SDS011;52474;52.236;5.114;2023-04-15T07:32:14;11.57;;;5.70;;
59169;SDS011;52474;52.236;5.114;2023-04-15T07:34:41;8.98;;;5.45;;
59169;SDS011;52474;52.236;5.114;2023-04-15T07:37:08;8.52;;;4.80;;
59169;SDS011;52474;52.236;5.114;2023-04-15T07:39:36;7.30;;;4.28;;
59169;SDS011;52474;52.236;5.114;2023-04-15T07:42:03;7.88;;;4.80;;
59169;SDS011;52474;52.236;5.114;2023-04-15T07:47:01;6.22;;;4.38;;
59169;SDS011;52474;52.236;5.114;2023-04-15T07:49:29;6.65;;;4.40;;
59169;SDS011;52474;52.236;5.114;2023-04-15T07:51:56;7.80;;;5.70;;
59169;SDS011;52474;52.236;5.114;2023-04-15T07:54:25;6.57;;;4.60;;
59169;SDS011;52474;52.236;5.114;2023-04-15T07:56:53;5.95;;;4.70;;
59169;SDS011;52474;52.236;5.114;2023-04-15T07:59:21;7.38;;;4.75;;
59169;SDS011;52474;52.236;5.114;2023-04-15T08:01:51;6.35;;;4.88;;
59169;SDS011;52474;52.236;5.114;2023-04-15T08:04:18;9.20;;;4.68;;
59169;SDS011;52474;52.236;5.114;2023-04-15T08:06:45;8.98;;;4.82;;
59169;SDS011;52474;52.236;5.114;2023-04-15T08:09:15;5.82;;;4.70;;
59169;SDS011;52474;52.236;5.114;2023-04-15T08:11:43;7.70;;;4.97;;
59169;SDS011;52474;52.236;5.114;2023-04-15T08:14:10;4.88;;;4.35;;
59169;SDS011;52474;52.236;5.114;2023-04-15T08:16:38;5.82;;;4.38;;
59169;SDS011;52474;52.236;5.114;2023-04-15T08:19:04;5.95;;;5.07;;
59169;SDS011;52474;52.236;5.114;2023-04-15T08:21:31;8.25;;;4.70;;
59169;SDS011;52474;52.236;5.114;2023-04-15T08:23:59;6.00;;;4.00;;
59169;SDS011;52474;52.236;5.114;2023-04-15T08:26:28;4.90;;;4.07;;
59169;SDS011;52474;52.236;5.114;2023-04-15T08:28:55;5.72;;;4.00;;
59169;SDS011;52474;52.236;5.114;2023-04-15T08:31:22;5.68;;;4.32;;
59169;SDS011;52474;52.236;5.114;2023-04-15T08:33:52;5.13;;;4.13;;
59169;SDS011;52474;52.236;5.114;2023-04-15T08:36:22;6.35;;;3.92;;
59169;SDS011;52474;52.236;5.114;2023-04-15T08:38:49;6.03;;;4.50;;
59169;SDS011;52474;52.236;5.114;2023-04-15T08:41:23;5.88;;;4.70;;
59169;SDS011;52474;52.236;5.114;2023-04-15T08:43:53;7.38;;;4.47;;
59169;SDS011;52474;52.236;5.114;2023-04-15T08:46:23;5.38;;;3.95;;
59169;SDS011;52474;52.236;5.114;2023-04-15T08:48:53;5.82;;;4.13;;
59169;SDS011;52474;52.236;5.114;2023-04-15T08:51:23;5.57;;;3.85;;
59169;SDS011;52474;52.236;5.114;2023-04-15T08:53:51;6.28;;;3.67;;
59169;SDS011;52474;52.236;5.114;2023-04-15T08:56:18;4.70;;;4.20;;
59169;SDS011;52474;52.236;5.114;2023-04-15T08:58:50;6.40;;;4.15;;
59169;SDS011;52474;52.236;5.114;2023-04-15T09:01:18;6.47;;;4.47;;
59169;SDS011;52474;52.236;5.114;2023-04-15T09:03:47;6.95;;;4.18;;
59169;SDS011;52474;52.236;5.114;2023-04-15T09:06:16;7.20;;;4.53;;
59169;SDS011;52474;52.236;5.114;2023-04-15T09:08:43;8.13;;;4.90;;
59169;SDS011;52474;52.236;5.114;2023-04-15T09:11:10;6.32;;;4.70;;
59169;SDS011;52474;52.236;5.114;2023-04-15T09:13:38;8.00;;;4.50;;
59169;SDS011;52474;52.236;5.114;2023-04-15T09:16:05;7.35;;;3.88;;
59169;SDS011;52474;52.236;5.114;2023-04-15T09:18:34;4.28;;;3.15;;
59169;SDS011;52474;52.236;5.114;2023-04-15T09:21:05;4.40;;;3.40;;
59169;SDS011;52474;52.236;5.114;2023-04-15T09:26:01;3.47;;;2.75;;
59169;SDS011;52474;52.236;5.114;2023-04-15T09:28:29;3.30;;;2.92;;
59169;SDS011;52474;52.236;5.114;2023-04-15T09:31:00;3.58;;;2.75;;
59169;SDS011;52474;52.236;5.114;2023-04-15T09:33:28;2.55;;;2.17;;
59169;SDS011;52474;52.236;5.114;2023-04-15T09:35:56;3.38;;;2.25;;
59169;SDS011;52474;52.236;5.114;2023-04-15T09:40:52;2.53;;;2.13;;
59169;SDS011;52474;52.236;5.114;2023-04-15T09:43:22;3.25;;;2.13;;
59169;SDS011;52474;52.236;5.114;2023-04-15T09:46:04;2.83;;;2.10;;
59169;SDS011;52474;52.236;5.114;2023-04-15T09:48:31;3.55;;;2.53;;
59169;SDS011;52474;52.236;5.114;2023-04-15T09:50:59;4.10;;;2.70;;
59169;SDS011;52474;52.236;5.114;2023-04-15T09:53:27;3.00;;;2.40;;
59169;SDS011;52474;52.236;5.114;2023-04-15T09:55:56;3.05;;;2.75;;
59169;SDS011;52474;52.236;5.114;2023-04-15T09:58:29;4.68;;;2.90;;
59169;SDS011;52474;52.236;5.114;2023-04-15T10:03:27;3.58;;;3.03;;
59169;SDS011;52474;52.236;5.114;2023-04-15T10:08:23;4.82;;;3.47;;
59169;SDS011;52474;52.236;5.114;2023-04-15T10:10:53;5.35;;;3.50;;
59169;SDS011;52474;52.236;5.114;2023-04-15T10:13:22;4.25;;;3.55;;
59169;SDS011;52474;52.236;5.114;2023-04-15T10:18:25;7.70;;;3.78;;
59169;SDS011;52474;52.236;5.114;2023-04-15T10:20:54;4.13;;;3.45;;
59169;SDS011;52474;52.236;5.114;2023-04-15T10:23:22;5.05;;;3.85;;
59169;SDS011;52474;52.236;5.114;2023-04-15T10:25:50;6.22;;;4.13;;
59169;SDS011;52474;52.236;5.114;2023-04-15T10:28:20;4.95;;;3.97;;
59169;SDS011;52474;52.236;5.114;2023-04-15T10:30:51;6.32;;;4.93;;
59169;SDS011;52474;52.236;5.114;2023-04-15T10:33:21;7.40;;;5.10;;
59169;SDS011;52474;52.236;5.114;2023-04-15T10:35:50;6.25;;;4.57;;
59169;SDS011;52474;52.236;5.114;2023-04-15T10:43:45;6.70;;;4.93;;
59169;SDS011;52474;52.236;5.114;2023-04-15T10:46:23;5.45;;;4.65;;
59169;SDS011;52474;52.236;5.114;2023-04-15T10:49:11;6.55;;;4.80;;
59169;SDS011;52474;52.236;5.114;2023-04-15T10:51:41;6.72;;;4.43;;
59169;SDS011;52474;52.236;5.114;2023-04-15T10:56:41;5.88;;;4.75;;
59169;SDS011;52474;52.236;5.114;2023-04-15T10:59:09;6.22;;;4.35;;
59169;SDS011;52474;52.236;5.114;2023-04-15T11:01:56;6.28;;;4.35;;
59169;SDS011;52474;52.236;5.114;2023-04-15T11:12:49;5.57;;;3.90;;
59169;SDS011;52474;52.236;5.114;2023-04-15T11:15:32;4.82;;;3.50;;
59169;SDS011;52474;52.236;5.114;2023-04-15T11:18:11;4.60;;;3.42;;
59169;SDS011;52474;52.236;5.114;2023-04-15T11:20:42;3.50;;;2.63;;
59169;SDS011;52474;52.236;5.114;2023-04-15T11:23:26;3.95;;;2.38;;
59169;SDS011;52474;52.236;5.114;2023-04-15T11:25:57;2.50;;;2.25;;
59169;SDS011;52474;52.236;5.114;2023-04-15T11:28:26;2.30;;;2.10;;
59169;SDS011;52474;52.236;5.114;2023-04-15T11:30:54;2.78;;;2.40;;
59169;SDS011;52474;52.236;5.114;2023-04-15T11:33:22;3.70;;;2.33;;
59169;SDS011;52474;52.236;5.114;2023-04-15T11:35:51;4.72;;;2.67;;
59169;SDS011;52474;52.236;5.114;2023-04-15T11:38:22;4.90;;;2.28;;
59169;SDS011;52474;52.236;5.114;2023-04-15T11:40:49;4.38;;;2.80;;
59169;SDS011;52474;52.236;5.114;2023-04-15T11:43:17;3.03;;;2.42;;
59169;SDS011;52474;52.236;5.114;2023-04-15T11:45:49;3.95;;;2.20;;
59169;SDS011;52474;52.236;5.114;2023-04-15T11:48:22;4.05;;;2.40;;
59169;SDS011;52474;52.236;5.114;2023-04-15T11:50:54;3.95;;;2.83;;
59169;SDS011;52474;52.236;5.114;2023-04-15T11:53:23;3.28;;;2.65;;
59169;SDS011;52474;52.236;5.114;2023-04-15T11:55:59;3.55;;;2.40;;
59169;SDS011;52474;52.236;5.114;2023-04-15T11:58:26;4.57;;;2.50;;
59169;SDS011;52474;52.236;5.114;2023-04-15T12:00:52;4.32;;;2.70;;
59169;SDS011;52474;52.236;5.114;2023-04-15T12:09:14;5.45;;;3.20;;
59169;SDS011;52474;52.236;5.114;2023-04-15T12:13:55;4.57;;;2.90;;
59169;SDS011;52474;52.236;5.114;2023-04-15T12:16:24;4.07;;;2.70;;
59169;SDS011;52474;52.236;5.114;2023-04-15T12:18:51;4.65;;;2.97;;
59169;SDS011;52474;52.236;5.114;2023-04-15T12:21:20;5.53;;;2.88;;
59169;SDS011;52474;52.236;5.114;2023-04-15T12:23:51;6.10;;;2.97;;
59169;SDS011;52474;52.236;5.114;2023-04-15T12:26:28;9.02;;;3.03;;
59169;SDS011;52474;52.236;5.114;2023-04-15T12:28:59;4.57;;;3.20;;
59169;SDS011;52474;52.236;5.114;2023-04-15T12:31:26;4.25;;;3.08;;
59169;SDS011;52474;52.236;5.114;2023-04-15T12:33:56;4.30;;;3.15;;
59169;SDS011;52474;52.236;5.114;2023-04-15T12:36:23;5.50;;;3.33;;
59169;SDS011;52474;52.236;5.114;2023-04-15T12:38:49;5.82;;;2.83;;
59169;SDS011;52474;52.236;5.114;2023-04-15T12:41:15;5.53;;;3.33;;
59169;SDS011;52474;52.236;5.114;2023-04-15T12:43:44;5.30;;;3.53;;
59169;SDS011;52474;52.236;5.114;2023-04-15T12:46:11;4.90;;;3.20;;
59169;SDS011;52474;52.236;5.114;2023-04-15T12:48:38;3.28;;;2.17;;
59169;SDS011;52474;52.236;5.114;2023-04-15T12:51:05;3.67;;;2.38;;
59169;SDS011;52474;52.236;5.114;2023-04-15T12:53:30;3.40;;;2.22;;
59169;SDS011;52474;52.236;5.114;2023-04-15T12:55:56;5.65;;;2.30;;
59169;SDS011;52474;52.236;5.114;2023-04-15T12:58:22;5.07;;;2.42;;
59169;SDS011;52474;52.236;5.114;2023-04-15T13:00:48;4.32;;;2.17;;
59169;SDS011;52474;52.236;5.114;2023-04-15T13:03:15;3.88;;;2.17;;
59169;SDS011;52474;52.236;5.114;2023-04-15T13:05:41;3.58;;;2.10;;
59169;SDS011;52474;52.236;5.114;2023-04-15T13:08:07;4.63;;;2.00;;
59169;SDS011;52474;52.236;5.114;2023-04-15T13:10:34;2.75;;;2.00;;
59169;SDS011;52474;52.236;5.114;2023-04-15T13:13:01;3.13;;;1.70;;
59169;SDS011;52474;52.236;5.114;2023-04-15T13:15:27;3.33;;;1.70;;
59169;SDS011;52474;52.236;5.114;2023-04-15T13:17:53;2.72;;;1.38;;
59169;SDS011;52474;52.236;5.114;2023-04-15T13:20:19;3.25;;;1.20;;
59169;SDS011;52474;52.236;5.114;2023-04-15T13:22:45;3.17;;;1.50;;
59169;SDS011;52474;52.236;5.114;2023-04-15T13:25:11;2.17;;;1.10;;
59169;SDS011;52474;52.236;5.114;2023-04-15T13:27:37;2.08;;;1.30;;
59169;SDS011;52474;52.236;5.114;2023-04-15T13:30:03;2.67;;;1.20;;
59169;SDS011;52474;52.236;5.114;2023-04-15T13:32:32;3.15;;;1.52;;
59169;SDS011;52474;52.236;5.114;2023-04-15T13:34:58;2.38;;;1.38;;
59169;SDS011;52474;52.236;5.114;2023-04-15T13:37:28;2.67;;;1.45;;
59169;SDS011;52474;52.236;5.114;2023-04-15T13:39:55;3.55;;;1.52;;
59169;SDS011;52474;52.236;5.114;2023-04-15T13:42:24;3.95;;;1.48;;
59169;SDS011;52474;52.236;5.114;2023-04-15T13:44:51;1.38;;;1.20;;
59169;SDS011;52474;52.236;5.114;2023-04-15T13:47:18;4.00;;;1.60;;
59169;SDS011;52474;52.236;5.114;2023-04-15T13:49:44;2.70;;;1.60;;
59169;SDS011;52474;52.236;5.114;2023-04-15T13:52:10;3.42;;;1.70;;
59169;SDS011;52474;52.236;5.114;2023-04-15T13:54:37;2.78;;;1.40;;
59169;SDS011;52474;52.236;5.114;2023-04-15T13:57:45;2.85;;;1.77;;
59169;SDS011;52474;52.236;5.114;2023-04-15T14:00:11;3.47;;;1.40;;
59169;SDS011;52474;52.236;5.114;2023-04-15T14:02:39;3.75;;;1.60;;
59169;SDS011;52474;52.236;5.114;2023-04-15T14:05:04;3.08;;;1.20;;
59169;SDS011;52474;52.236;5.114;2023-04-15T14:07:32;4.13;;;1.20;;
59169;SDS011;52474;52.236;5.114;2023-04-15T14:09:58;3.28;;;1.20;;
59169;SDS011;52474;52.236;5.114;2023-04-15T14:12:27;5.07;;;2.03;;
59169;SDS011;52474;52.236;5.114;2023-04-15T14:14:53;2.40;;;1.30;;
59169;SDS011;52474;52.236;5.114;2023-04-15T14:17:19;2.67;;;1.10;;
59169;SDS011;52474;52.236;5.114;2023-04-15T14:19:45;2.53;;;1.35;;
59169;SDS011;52474;52.236;5.114;2023-04-15T14:22:11;4.78;;;1.85;;
59169;SDS011;52474;52.236;5.114;2023-04-15T14:24:37;3.85;;;1.40;;
59169;SDS011;52474;52.236;5.114;2023-04-15T14:27:03;4.65;;;1.27;;
59169;SDS011;52474;52.236;5.114;2023-04-15T14:29:28;3.95;;;1.20;;
59169;SDS011;52474;52.236;5.114;2023-04-15T14:31:55;2.80;;;1.40;;
59169;SDS011;52474;52.236;5.114;2023-04-15T14:34:24;2.22;;;1.10;;
59169;SDS011;52474;52.236;5.114;2023-04-15T14:36:50;3.83;;;1.02;;
59169;SDS011;52474;52.236;5.114;2023-04-15T14:39:19;5.18;;;1.25;;
59169;SDS011;52474;52.236;5.114;2023-04-15T14:41:46;4.10;;;1.08;;
59169;SDS011;52474;52.236;5.114;2023-04-15T14:44:12;2.33;;;1.00;;
59169;SDS011;52474;52.236;5.114;2023-04-15T14:46:41;7.32;;;1.83;;
59169;SDS011;52474;52.236;5.114;2023-04-15T14:49:09;8.70;;;1.27;;
59169;SDS011;52474;52.236;5.114;2023-04-15T14:51:36;3.58;;;1.10;;
59169;SDS011;52474;52.236;5.114;2023-04-15T14:54:02;7.00;;;1.48;;
59169;SDS011;52474;52.236;5.114;2023-04-15T14:56:28;5.32;;;1.27;;
59169;SDS011;52474;52.236;5.114;2023-04-15T14:58:54;4.68;;;1.20;;
59169;SDS011;52474;52.236;5.114;2023-04-15T15:01:20;2.03;;;1.02;;
59169;SDS011;52474;52.236;5.114;2023-04-15T15:03:46;5.47;;;1.10;;
59169;SDS011;52474;52.236;5.114;2023-04-15T15:06:13;2.53;;;0.90;;
59169;SDS011;52474;52.236;5.114;2023-04-15T15:08:39;4.07;;;1.15;;
59169;SDS011;52474;52.236;5.114;2023-04-15T15:11:05;4.75;;;1.38;;
59169;SDS011;52474;52.236;5.114;2023-04-15T15:13:31;4.15;;;1.20;;
59169;SDS011;52474;52.236;5.114;2023-04-15T15:15:57;5.70;;;1.15;;
59169;SDS011;52474;52.236;5.114;2023-04-15T15:18:23;4.30;;;1.40;;
59169;SDS011;52474;52.236;5.114;2023-04-15T15:20:50;3.95;;;1.30;;
59169;SDS011;52474;52.236;5.114;2023-04-15T15:23:16;5.18;;;1.10;;
59169;SDS011;52474;52.236;5.114;2023-04-15T15:25:42;7.05;;;1.17;;
59169;SDS011;52474;52.236;5.114;2023-04-15T15:28:08;5.10;;;1.27;;